Data for 10/31/2015

Time Sea-Level Adjusted Pressure Absolute Pressure Temperature Relative Humidity Dew Point   
(mb) (inHg) (mb) (inHg) (C) (F) (%) (C) (F)
00:05 1011 29.85 840 24.81 10.2 50.4 42 -2.2 28.1
00:10 1011 29.85 840 24.81 10.2 50.3 42 -2.1 28.2
00:15 1011 29.85 840 24.81 10.2 50.3 42 -2 28.4
00:20 1011 29.85 840 24.81 10.2 50.3 43 -2 28.5
00:25 1011 29.85 840 24.81 10.1 50.1 42 -2.1 28.2
00:30 1011 29.85 841 24.83 10.1 50.2 43 -2 28.5
00:35 1011 29.85 841 24.83 10 50 43 -1.9 28.5
00:40 1011 29.85 841 24.83 9.9 49.9 42 -2.3 27.8
00:45 1011 29.85 841 24.83 10 50.1 41 -2.5 27.5
00:50 1011 29.85 841 24.83 10.1 50.1 41 -2.4 27.6
00:55 1011 29.85 841 24.83 10 50.1 42 -2.4 27.7
01:00 1012 29.88 841 24.83 10 49.9 41 -2.5 27.5
01:05 1012 29.88 841 24.83 10.2 50.3 38 -3.4 25.9
01:10 1012 29.88 841 24.83 10.6 51.1 39 -2.8 27
01:15 1012 29.88 841 24.83 10.3 50.5 41 -2.2 28
01:20 1012 29.88 841 24.83 10.1 50.2 41 -2.5 27.4
01:25 1012 29.88 841 24.83 10.1 50.2 41 -2.5 27.5
01:30 1012 29.88 841 24.83 10.1 50.2 41 -2.6 27.4
01:35 1012 29.88 841 24.83 10.1 50.2 40 -2.8 27
01:40 1012 29.88 841 24.83 10.1 50.3 40 -2.8 27
01:45 1012 29.88 841 24.83 10.1 50.2 41 -2.7 27.2
01:50 1012 29.88 841 24.83 10.1 50.1 40 -2.8 26.9
01:55 1012 29.88 841 24.83 10.2 50.3 40 -2.7 27.1
02:00 1012 29.88 841 24.83 10.1 50.3 39 -3.1 26.5
02:05 1012 29.88 841 24.83 10.3 50.5 39 -3.1 26.5
02:10 1012 29.88 841 24.83 10.2 50.4 40 -2.9 26.8
02:15 1012 29.88 841 24.83 10.1 50.2 40 -3 26.6
02:20 1012 29.88 841 24.83 10.2 50.4 38 -3.3 26
02:25 1012 29.88 841 24.83 10.3 50.6 39 -3 26.6
02:30 1012 29.88 841 24.83 10.2 50.4 39 -2.9 26.7
02:35 1012 29.88 841 24.83 10.1 50.2 41 -2.6 27.3
02:40 1012 29.88 841 24.83 9.9 49.8 41 -2.6 27.3
02:45 1012 29.88 841 24.83 9.9 49.7 41 -2.6 27.3
02:50 1012 29.88 841 24.83 9.8 49.7 41 -2.7 27.2
02:55 1012 29.88 841 24.83 9.8 49.7 42 -2.5 27.5
03:00 1012 29.88 841 24.83 9.7 49.5 42 -2.6 27.3
03:05 1012 29.88 841 24.83 10 49.9 40 -3 26.6
03:10 1012 29.88 841 24.83 10.3 50.5 38 -3.2 26.2
03:15 1012 29.88 841 24.83 10.5 50.9 40 -2.5 27.6
03:20 1012 29.88 841 24.83 10.2 50.3 41 -2.3 27.8
03:25 1012 29.88 841 24.83 10.1 50.1 41 -2.5 27.6
03:30 1012 29.88 841 24.83 10.1 50.1 41 -2.5 27.4
03:35 1012 29.88 841 24.83 10.1 50.2 41 -2.5 27.5
03:40 1012 29.88 841 24.83 10.1 50.2 40 -2.7 27.2
03:45 1012 29.88 841 24.83 10.2 50.4 41 -2.5 27.5
03:50 1012 29.88 841 24.83 10.2 50.3 41 -2.4 27.6
03:55 1012 29.88 841 24.83 10.1 50.2 42 -2.1 28.2
04:00 1012 29.88 841 24.83 10 50 43 -2.1 28.3
04:05 1012 29.88 841 24.83 10 49.9 43 -2 28.4
04:10 1012 29.88 841 24.83 9.9 49.8 43 -2 28.4
04:15 1012 29.88 841 24.83 9.9 49.9 43 -1.9 28.5
04:20 1012 29.88 841 24.83 9.9 49.8 44 -1.8 28.7
04:25 1012 29.88 841 24.83 9.9 49.8 43 -2 28.4
04:30 1012 29.88 841 24.83 10 49.9 44 -1.8 28.7
04:35 1012 29.88 841 24.83 9.9 49.9 45 -1.6 29.2
04:40 1012 29.88 841 24.83 10 49.9 44 -1.6 29.2
04:45 1012 29.88 841 24.83 10.1 50.2 46 -1 30.3
04:50 1012 29.88 841 24.83 10.1 50.2 45 -1.1 30
04:55 1012 29.88 841 24.83 10.2 50.3 44 -1.5 29.4
05:00 1012 29.88 841 24.83 10.2 50.3 46 -0.8 30.5
05:05 1012 29.88 841 24.83 10 49.9 46 -1.2 29.8
05:10 1012 29.88 841 24.83 9.8 49.6 48 -0.5 31
05:15 1012 29.88 841 24.83 9.6 49.3 52 0.3 32.5
05:20 1012 29.88 841 24.83 9.3 48.8 54 0.6 33.1
05:25 1012 29.88 841 24.83 9.2 48.5 55 0.6 33.1
05:30 1012 29.88 841 24.83 9.1 48.4 56 0.9 33.7
05:35 1012 29.88 841 24.83 9 48.2 54 0.1 32.2
05:40 1012 29.88 841 24.83 9.2 48.5 55 0.6 33.2
05:45 1012 29.88 841 24.83 9 48.3 56 0.7 33.2
05:50 1012 29.88 841 24.83 8.9 48.1 55 0.5 33
05:55 1012 29.88 841 24.83 8.9 48 56 0.5 33
06:00 1012 29.88 841 24.83 8.8 47.9 58 1 33.7
06:05 1012 29.88 841 24.83 8.7 47.6 58 0.9 33.6
06:10 1012 29.88 841 24.83 8.7 47.7 57 0.6 33.1
06:15 1012 29.88 841 24.83 8.7 47.6 57 0.7 33.3
06:20 1012 29.88 841 24.83 8.6 47.5 58 0.9 33.5
06:25 1012 29.88 841 24.83 8.5 47.3 59 1.1 33.9
06:30 1012 29.88 841 24.83 8.3 47 61 1.2 34.1
06:35 1012 29.88 841 24.83 8.2 46.7 62 1.4 34.5
06:40 1012 29.88 841 24.83 8 46.5 62 1.3 34.4
06:45 1012 29.88 841 24.83 8 46.3 64 1.6 34.9
06:50 1012 29.88 841 24.83 7.9 46.1 64 1.5 34.8
06:55 1012 29.88 841 24.83 7.8 46 66 1.8 35.3
07:00 1012 29.88 841 24.83 7.7 45.8 67 1.9 35.5
07:05 1012 29.88 841 24.83 7.5 45.6 67 1.8 35.3
07:10 1012 29.88 841 24.83 7.5 45.5 67 1.8 35.3
07:15 1012 29.88 841 24.83 7.6 45.6 65 1.4 34.5
07:20 1012 29.88 841 24.83 7.7 45.9 64 1.4 34.5
07:25 1012 29.88 841 24.83 7.8 46 67 2 35.6
07:30 1012 29.88 841 24.83 7.6 45.7 69 2.3 36.2
07:35 1012 29.88 841 24.83 7.5 45.4 71 2.6 36.7
07:40 1012 29.88 841 24.83 7.3 45.2 68 1.8 35.2
07:45 1012 29.88 841 24.83 7.5 45.4 65 1.4 34.5
07:50 1012 29.88 841 24.83 7.6 45.7 71 2.7 36.8
07:55 1012 29.88 841 24.83 7.5 45.4 67 1.8 35.3
08:00 1012 29.88 841 24.83 7.7 45.8 64 1.3 34.4
08:05 1012 29.88 841 24.83 7.8 46.1 65 1.7 35
08:10 1012 29.88 841 24.83 7.8 46.1 66 1.8 35.3
08:15 1012 29.88 841 24.83 7.8 46 69 2.5 36.6
08:20 1012 29.88 841 24.83 7.4 45.3 74 3.1 37.5
08:25 1012 29.88 841 24.83 7.1 44.7 72 2.3 36.1
08:30 1012 29.88 841 24.83 7.3 45.2 67 1.6 34.8
08:35 1012 29.88 841 24.83 7.8 46 67 2.1 35.8
08:40 1012 29.88 841 24.83 7.9 46.1 69 2.5 36.5
08:45 1012 29.88 841 24.83 7.8 46 71 2.9 37.3
08:50 1012 29.88 841 24.83 7.8 46.1 71 2.8 37.1
08:55 1012 29.88 841 24.83 7.9 46.2 72 3.3 37.9
09:00 1012 29.88 841 24.83 7.9 46.1 73 3.2 37.8
09:05 1012 29.88 841 24.83 7.9 46.3 71 3.1 37.6
09:10 1012 29.88 841 24.83 8 46.3 70 2.8 37
09:15 1012 29.88 841 24.83 8.1 46.5 68 2.6 36.7
09:20 1012 29.88 841 24.83 8.2 46.7 67 2.5 36.5
09:25 1012 29.88 841 24.83 8.4 47.2 66 2.5 36.5
09:30 1012 29.88 841 24.83 8.9 48.1 63 2.4 36.2
09:35 1012 29.88 841 24.83 9.3 48.7 66 3.2 37.8
09:40 1012 29.88 841 24.83 9.2 48.5 64 2.8 37
09:45 1012 29.88 841 24.83 9.4 48.9 63 2.7 36.9
09:50 1012 29.88 841 24.83 9.6 49.3 63 3 37.4
09:55 1012 29.88 841 24.83 9.8 49.7 62 3 37.4
10:00 1012 29.88 841 24.83 9.8 49.7 62 2.8 37.1
10:05 1012 29.88 841 24.83 10 50 63 3.4 38.2
10:10 1012 29.88 841 24.83 10.1 50.2 59 2.6 36.6
10:15 1012 29.88 841 24.83 10.2 50.4 60 2.9 37.3
10:20 1012 29.88 841 24.83 10.2 50.4 58 2.5 36.5
10:25 1012 29.88 841 24.83 10.2 50.3 60 2.8 37
10:30 1012 29.88 841 24.83 10.3 50.6 60 2.9 37.1
10:35 1012 29.88 841 24.83 10.5 50.8 56 2.1 35.8
10:40 1012 29.88 841 24.83 10.6 51.1 56 2.3 36.2
10:45 1012 29.88 841 24.83 10.9 51.6 53 1.7 35
10:50 1012 29.88 841 24.83 11.4 52.6 50 1.5 34.8
10:55 1012 29.88 841 24.83 11.9 53.5 48 1.4 34.4
11:00 1012 29.88 841 24.83 12.2 53.9 47 1.4 34.5
11:05 1012 29.88 841 24.83 12.3 54.1 47 1.3 34.3
11:10 1012 29.88 841 24.83 12.4 54.4 46 1.1 34
11:15 1012 29.88 841 24.83 12.5 54.5 47 1.5 34.7
11:20 1012 29.88 841 24.83 12.6 54.7 45 1 33.8
11:25 1012 29.88 841 24.83 12.8 55 45 1.3 34.3
11:30 1012 29.88 841 24.83 12.9 55.3 43 0.7 33.3
11:35 1012 29.88 841 24.83 13.1 55.6 44 1.1 34
11:40 1012 29.88 841 24.83 13.2 55.8 42 0.6 33.1
11:45 1012 29.88 841 24.83 13.4 56 41 0.6 33.1
11:50 1012 29.88 841 24.83 13.4 56 41 0.5 33
11:55 1012 29.88 841 24.83 13.4 56.1 42 1 33.7
12:00 1012 29.88 841 24.83 13.2 55.7 42 0.6 33.1
12:05 1012 29.88 841 24.83 13.1 55.6 42 0.5 32.8
12:10 1012 29.88 841 24.83 13.1 55.6 42 0.4 32.8
12:15 1012 29.88 841 24.83 13.1 55.5 43 0.8 33.5
12:20 1012 29.88 841 24.83 13 55.5 43 0.9 33.6
12:25 1012 29.88 841 24.83 13.1 55.5 43 0.8 33.5
12:30 1011 29.85 841 24.83 13.1 55.5 42 0.7 33.2
12:35 1011 29.85 841 24.83 13.1 55.6 43 0.8 33.4
12:40 1011 29.85 841 24.83 13.1 55.6 43 0.9 33.6
12:45 1011 29.85 841 24.83 13.1 55.6 44 1 33.9
12:50 1011 29.85 841 24.83 13 55.4 44 1 33.8
12:55 1011 29.85 840 24.81 13 55.5 44 1 33.8
13:00 1011 29.85 840 24.81 13 55.5 43 0.9 33.7
13:05 1011 29.85 840 24.81 13 55.4 43 0.8 33.4
13:10 1011 29.85 840 24.81 13.1 55.5 43 1 33.7
13:15 1011 29.85 840 24.81 13 55.4 43 0.8 33.4
13:20 1011 29.85 840 24.81 13.1 55.6 42 0.7 33.2
13:25 1011 29.85 840 24.81 13.2 55.8 43 0.8 33.5
13:30 1011 29.85 840 24.81 13.3 56 42 0.6 33.1
13:35 1011 29.85 840 24.81 13.6 56.5 41 0.6 33
13:40 1011 29.85 840 24.81 13.8 56.8 39 0.2 32.3
13:45 1011 29.85 840 24.81 13.9 57.1 39 0.2 32.3
13:50 1011 29.85 840 24.81 14 57.3 38 0.1 32.2
13:55 1011 29.85 840 24.81 14.1 57.4 37 -0.1 31.8
14:00 1011 29.85 840 24.81 14.1 57.5 37 -0.4 31.3
14:05 1011 29.85 840 24.81 14.4 57.9 35 -0.7 30.7
14:10 1011 29.85 840 24.81 14.7 58.5 35 -0.6 30.9
14:15 1011 29.85 840 24.81 14.8 58.7 35 -0.5 31.1
14:20 1010 29.83 840 24.81 14.9 58.8 34 -0.6 30.9
14:25 1010 29.83 840 24.81 14.9 58.9 35 -0.3 31.4
14:30 1010 29.83 840 24.81 14.9 58.9 34 -0.6 30.8
14:35 1010 29.83 839 24.78 15.1 59.1 35 -0.2 31.7
14:40 1010 29.83 840 24.81 15 58.9 34 -0.6 30.9
14:45 1010 29.83 840 24.81 15 59 36 -0 32
14:50 1010 29.83 840 24.81 14.9 58.8 35 -0.3 31.4
14:55 1010 29.83 840 24.81 14.9 58.8 36 0.1 32.1
15:00 1010 29.83 840 24.81 14.8 58.7 36 0.2 32.3
15:05 1010 29.83 840 24.81 14.8 58.6 37 0.4 32.6
15:10 1010 29.83 840 24.81 14.8 58.7 36 0 32.1
15:15 1010 29.83 840 24.81 15 59 35 -0.1 31.8
15:20 1010 29.83 840 24.81 15.2 59.3 34 -0.4 31.2
15:25 1011 29.85 840 24.81 15.2 59.4 35 -0.1 31.9
15:30 1010 29.83 840 24.81 15.2 59.3 34 -0.4 31.3
15:35 1011 29.85 840 24.81 15.1 59.2 36 0.1 32.2
15:40 1011 29.85 840 24.81 15 58.9 36 0.3 32.5
15:45 1011 29.85 840 24.81 15 58.9 35 -0.2 31.6
15:50 1011 29.85 840 24.81 14.9 58.8 36 -0.1 31.9
15:55 1011 29.85 840 24.81 14.9 58.7 36 0 32
16:00 1011 29.85 840 24.81 14.7 58.5 36 -0.1 31.8
16:05 1011 29.85 840 24.81 14.7 58.4 36 -0.1 31.8
16:10 1011 29.85 840 24.81 14.7 58.4 35 -0.6 30.9
16:15 1011 29.85 840 24.81 14.9 58.7 34 -0.6 30.9
16:20 1011 29.85 840 24.81 14.9 58.8 35 -0.3 31.4
16:25 1011 29.85 840 24.81 14.9 58.7 34 -0.8 30.5
16:30 1011 29.85 840 24.81 14.9 58.9 34 -0.8 30.5
16:35 1011 29.85 840 24.81 14.9 58.8 34 -0.7 30.7
16:40 1011 29.85 840 24.81 14.9 58.8 34 -0.7 30.8
16:45 1011 29.85 840 24.81 14.9 58.9 34 -0.7 30.7
16:50 1011 29.85 840 24.81 14.9 58.9 34 -0.6 30.8
16:55 1011 29.85 840 24.81 14.8 58.7 35 -0.5 31
17:00 1010 29.83 840 24.81 14.7 58.4 35 -0.6 30.9
17:05 1010 29.83 840 24.81 14.6 58.3 34 -0.9 30.4
17:10 1010 29.83 840 24.81 14.7 58.4 34 -1 30.2
17:15 1010 29.83 840 24.81 14.7 58.4 33 -1.3 29.6
17:20 1010 29.83 839 24.78 14.9 58.7 33 -1 30.2
17:25 1010 29.83 839 24.78 14.7 58.4 33 -1.2 29.8
17:30 1010 29.83 839 24.78 14.8 58.7 33 -1.3 29.7
17:35 1010 29.83 839 24.78 14.9 58.7 33 -1.3 29.6
17:40 1010 29.83 839 24.78 14.9 58.7 32 -1.5 29.3
17:45 1010 29.83 839 24.78 14.9 58.9 33 -1.3 29.7
17:50 1010 29.83 839 24.78 14.9 58.8 32 -1.6 29.1
17:55 1010 29.83 840 24.81 15 59 32 -1.7 29
18:00 1010 29.83 840 24.81 15 59.1 31 -1.7 29
18:05 1010 29.83 840 24.81 15 59 32 -1.5 29.3
18:10 1011 29.85 840 24.81 14.9 58.8 32 -1.4 29.5
18:15 1011 29.85 840 24.81 14.7 58.5 33 -1.3 29.7
18:20 1011 29.85 840 24.81 14.6 58.2 32 -1.7 29
18:25 1011 29.85 840 24.81 14.8 58.6 31 -1.9 28.5
18:30 1010 29.83 840 24.81 15 58.9 32 -1.6 29.1
18:35 1010 29.83 840 24.81 14.9 58.8 32 -1.6 29.1
18:40 1011 29.85 840 24.81 14.8 58.7 32 -1.5 29.4
18:45 1011 29.85 840 24.81 14.7 58.5 32 -1.8 28.8
18:50 1011 29.85 840 24.81 14.8 58.6 32 -1.9 28.6
18:55 1011 29.85 840 24.81 14.7 58.5 31 -2.1 28.2
19:00 1010 29.83 840 24.81 14.8 58.6 31 -2.1 28.3
19:05 1010 29.83 840 24.81 14.7 58.4 32 -1.9 28.5
19:10 1010 29.83 840 24.81 14.5 58.2 32 -2.1 28.3
19:15 1010 29.83 840 24.81 14.5 58.1 31 -2.3 27.8
19:20 1010 29.83 840 24.81 14.6 58.3 31 -2.4 27.7
19:25 1010 29.83 840 24.81 14.7 58.5 31 -2.3 27.8
19:30 1011 29.85 840 24.81 14.8 58.6 30 -2.4 27.6
19:35 1011 29.85 840 24.81 14.9 58.7 30 -2.3 27.9
19:40 1011 29.85 840 24.81 14.8 58.6 31 -2.1 28.2
19:45 1011 29.85 840 24.81 14.6 58.3 31 -2.2 28.1
19:50 1011 29.85 840 24.81 14.6 58.4 31 -2.3 27.9
19:55 1011 29.85 840 24.81 14.6 58.3 31 -2.2 28
20:00 1011 29.85 840 24.81 14.6 58.2 31 -2.3 27.8
20:05 1011 29.85 840 24.81 14.6 58.3 30 -2.6 27.3
20:10 1011 29.85 840 24.81 14.7 58.4 30 -2.5 27.5
20:15 1011 29.85 840 24.81 14.6 58.3 30 -2.6 27.3
20:20 1011 29.85 840 24.81 14.6 58.2 31 -2.4 27.6
20:25 1011 29.85 840 24.81 14.5 58.1 30 -2.6 27.4
20:30 1011 29.85 840 24.81 14.7 58.4 30 -2.7 27.1
20:35 1011 29.85 840 24.81 14.6 58.3 30 -2.6 27.2
20:40 1011 29.85 840 24.81 14.5 58.1 30 -2.8 26.9
20:45 1011 29.85 840 24.81 14.5 58.1 30 -2.9 26.8
20:50 1011 29.85 840 24.81 14.5 58.1 29 -3.3 26.1
20:55 1011 29.85 840 24.81 14.7 58.5 30 -2.7 27.1
21:00 1011 29.85 840 24.81 14.5 58.1 30 -2.7 27.1
21:05 1011 29.85 840 24.81 14.6 58.3 29 -3 26.6
21:10 1011 29.85 840 24.81 14.5 58.2 30 -2.8 26.9
21:15 1011 29.85 840 24.81 14.5 58.1 29 -3.1 26.4
21:20 1011 29.85 840 24.81 14.6 58.2 28 -3.5 25.6
21:25 1011 29.85 840 24.81 14.8 58.6 29 -3.2 26.2
21:30 1011 29.85 840 24.81 14.6 58.3 29 -3.3 26.1
21:35 1011 29.85 840 24.81 14.8 58.6 28 -3.5 25.7
21:40 1011 29.85 840 24.81 14.9 58.9 28 -3.5 25.7
21:45 1011 29.85 840 24.81 14.9 58.8 28 -3.3 26.1
21:50 1011 29.85 840 24.81 14.8 58.6 28 -3.4 25.8
21:55 1011 29.85 840 24.81 14.7 58.5 29 -3.2 26.3
22:00 1011 29.85 840 24.81 14.8 58.6 28 -3.7 25.3
22:05 1011 29.85 840 24.81 14.9 58.8 28 -3.5 25.7
22:10 1011 29.85 840 24.81 14.7 58.5 28 -3.6 25.6
22:15 1011 29.85 840 24.81 14.7 58.5 28 -3.5 25.8
22:20 1011 29.85 840 24.81 14.7 58.5 27 -3.9 25
22:25 1011 29.85 840 24.81 14.8 58.7 27 -3.8 25.2
22:30 1011 29.85 840 24.81 15 58.9 27 -3.9 24.9
22:35 1011 29.85 840 24.81 15.1 59.1 27 -3.7 25.4
22:40 1011 29.85 840 24.81 14.9 58.8 27 -3.8 25.2
22:45 1011 29.85 840 24.81 14.8 58.6 28 -3.7 25.3
22:50 1011 29.85 840 24.81 14.6 58.3 28 -3.6 25.5
22:55 1010 29.83 840 24.81 14.5 58.2 28 -3.9 25
23:00 1010 29.83 839 24.78 14.8 58.7 27 -3.9 25.1
23:05 1010 29.83 839 24.78 14.7 58.5 27 -3.8 25.1
23:10 1010 29.83 839 24.78 14.7 58.4 27 -4 24.8
23:15 1010 29.83 839 24.78 14.7 58.5 28 -3.7 25.4
23:20 1010 29.83 839 24.78 14.6 58.3 28 -3.6 25.5
23:25 1010 29.83 839 24.78 14.5 58.1 28 -3.7 25.4
23:30 1010 29.83 839 24.78 14.5 58.1 27 -4.2 24.4
23:35 1010 29.83 839 24.78 14.8 58.7 28 -3.5 25.7
23:40 1010 29.83 839 24.78 14.5 58.1 28 -3.6 25.4
23:45 1010 29.83 839 24.78 14.5 58 28 -3.6 25.4
23:50 1010 29.83 839 24.78 14.4 57.8 28 -3.7 25.3
23:55 1010 29.83 839 24.78 14.4 58 28 -3.9 24.9
24:00 1010 29.83 839 24.78 14.5 58.2 28 -3.6 25.5